Time;durP1;ratioP1;P1;durP2;ratioP2;P2;SDS_P1;SDS_P2;PMS_P1;PMS_P2;Temp;Humidity;BMP_temperature;BMP_pressure;BME280_temperature;BME280_humidity;BME280_pressure;Samples;Min_cycle;Max_cycle;Signal;HPM_P1;HPM_P2
2021/04/01 00:01:46;;;;;;;19.63;8.52;;;;;;;7.79;77.64;97148.22;5019402;28;20180;-64
2021/04/01 00:04:12;;;;;;;20.23;8.93;;;;;;;7.93;77.22;97147.94;5017254;28;20045;-65
2021/04/01 00:06:37;;;;;;;17.67;7.68;;;;;;;7.91;76.69;97141.25;5023017;28;20182;-65
2021/04/01 00:09:04;;;;;;;15.05;7.75;;;;;;;7.92;77.04;97140.09;5020203;28;20137;-60
2021/04/01 00:11:29;;;;;;;19.65;8.18;;;;;;;8.02;76.51;97139.66;5021852;28;20037;-63
2021/04/01 00:13:55;;;;;;;18.05;7.60;;;;;;;8.07;75.53;97135.91;5020839;28;20042;-64
2021/04/01 00:16:22;;;;;;;17.98;8.95;;;;;;;8.04;76.01;97129.97;5015339;28;20041;-65
2021/04/01 00:18:48;;;;;;;17.27;8.00;;;;;;;8.00;75.69;97134.53;5014825;28;20045;-63
2021/04/01 00:21:13;;;;;;;17.67;7.78;;;;;;;7.89;75.83;97135.31;5022156;28;20098;-64
2021/04/01 00:23:39;;;;;;;18.05;8.25;;;;;;;7.80;75.64;97127.25;5021029;28;20041;-62
2021/04/01 00:26:04;;;;;;;14.95;7.00;;;;;;;7.62;75.71;97132.06;5017030;28;20057;-61
2021/04/01 00:28:30;;;;;;;16.15;7.93;;;;;;;7.39;76.57;97128.94;5022394;28;20037;-64
2021/04/01 00:30:55;;;;;;;19.30;7.00;;;;;;;7.37;77.78;97123.03;5020606;28;20049;-65
2021/04/01 00:33:21;;;;;;;23.60;8.70;;;;;;;7.08;79.74;97120.06;5018536;28;21591;-64
2021/04/01 00:35:46;;;;;;;19.95;8.65;;;;;;;6.94;79.70;97121.47;5026184;28;20073;-62
2021/04/01 00:38:12;;;;;;;18.92;8.50;;;;;;;6.79;79.64;97118.22;5029616;28;20037;-65
2021/04/01 00:40:37;;;;;;;21.00;8.05;;;;;;;6.84;80.54;97122.66;5031542;28;20041;-64
2021/04/01 00:43:03;;;;;;;18.88;8.88;;;;;;;6.98;79.43;97117.72;5021709;28;20107;-62
2021/04/01 00:45:28;;;;;;;16.10;7.65;;;;;;;7.21;79.15;97120.13;5021506;28;20053;-64
2021/04/01 00:47:54;;;;;;;16.45;7.85;;;;;;;7.27;78.85;97114.13;5021792;28;20041;-62
2021/04/01 00:50:28;;;;;;;20.77;8.93;;;;;;;7.25;78.60;97115.59;5011932;28;20504;-63
2021/04/01 00:52:54;;;;;;;18.05;8.52;;;;;;;7.25;77.79;97118.31;5021884;28;20037;-63
2021/04/01 00:55:19;;;;;;;15.20;7.57;;;;;;;7.30;77.76;97118.09;5016977;28;20044;-64
2021/04/01 00:57:48;;;;;;;13.40;7.13;;;;;;;7.36;77.51;97114.03;5020961;28;20041;-61
2021/04/01 01:00:16;;;;;;;12.48;7.65;;;;;;;7.30;77.56;97111.88;5009224;28;20065;-64
2021/04/01 01:02:42;;;;;;;20.45;8.43;;;;;;;7.22;77.91;97110.78;5019202;28;20096;-62
2021/04/01 01:05:11;;;;;;;21.80;8.65;;;;;;;7.16;78.82;97107.50;4997230;28;20038;-64
2021/04/01 01:07:37;;;;;;;17.45;7.63;;;;;;;7.12;79.13;97106.56;5008755;28;20049;-64
2021/04/01 01:10:07;;;;;;;19.63;8.32;;;;;;;7.18;78.86;97107.94;5025708;28;20037;-62
2021/04/01 01:12:33;;;;;;;18.13;7.70;;;;;;;7.24;78.69;97103.13;5031098;28;20042;-64
2021/04/01 01:15:00;;;;;;;15.38;7.53;;;;;;;7.06;78.04;97103.25;5022304;28;20068;-61
2021/04/01 01:17:26;;;;;;;15.52;7.97;;;;;;;7.20;78.51;97107.63;5017778;28;20053;-62
2021/04/01 01:19:53;;;;;;;18.73;8.50;;;;;;;7.17;78.35;97108.31;5021533;28;20121;-63
2021/04/01 01:22:20;;;;;;;15.20;7.20;;;;;;;7.13;78.19;97107.34;5016490;28;20033;-63
2021/04/01 01:24:46;;;;;;;15.20;7.40;;;;;;;7.11;78.70;97107.69;5005082;28;20045;-62
2021/04/01 01:27:12;;;;;;;16.38;8.05;;;;;;;7.12;78.89;97111.22;5014650;28;20099;-62
2021/04/01 01:29:37;;;;;;;14.30;7.28;;;;;;;7.13;78.41;97110.09;5000235;28;20322;-63
2021/04/01 01:32:03;;;;;;;18.77;7.78;;;;;;;7.15;78.63;97110.53;4999210;28;20042;-61
2021/04/01 01:34:29;;;;;;;16.48;8.07;;;;;;;6.99;78.35;97110.38;5000798;28;20046;-63
2021/04/01 01:36:55;;;;;;;15.02;7.57;;;;;;;6.65;79.33;97110.28;5004725;28;20502;-62
2021/04/01 01:39:20;;;;;;;21.48;8.27;;;;;;;6.17;82.38;97105.31;5000093;28;20038;-62
2021/04/01 01:41:46;;;;;;;15.27;7.63;;;;;;;6.16;82.61;97104.50;5005389;28;20398;-62
2021/04/01 01:44:11;;;;;;;19.02;7.75;;;;;;;6.32;82.71;97099.31;5001256;28;20046;-61
2021/04/01 01:46:36;;;;;;;12.02;6.47;;;;;;;6.38;81.54;97099.91;5006076;28;20049;-61
2021/04/01 01:49:02;;;;;;;19.38;8.05;;;;;;;6.42;82.11;97093.47;5005108;28;20394;-60
2021/04/01 01:51:29;;;;;;;20.70;7.85;;;;;;;6.50;81.47;97094.56;5002562;28;20154;-62
2021/04/01 01:53:54;;;;;;;20.63;7.47;;;;;;;6.51;81.29;97102.38;5004982;28;20038;-62
2021/04/01 01:56:25;;;;;;;15.45;7.68;;;;;;;6.72;80.73;97103.50;5001513;28;20045;-63
2021/04/01 01:58:55;;;;;;;14.32;7.75;;;;;;;6.81;79.85;97101.56;5004381;28;20038;-61
2021/04/01 02:01:23;;;;;;;14.15;7.63;;;;;;;6.92;79.45;97093.78;4998293;28;20049;-62
2021/04/01 02:03:49;;;;;;;24.23;8.05;;;;;;;6.97;79.65;97099.00;5002901;28;20117;-62
2021/04/01 02:06:18;;;;;;;17.67;7.90;;;;;;;6.82;78.76;97095.75;4998401;28;20042;-63
2021/04/01 02:08:43;;;;;;;19.00;7.50;;;;;;;6.56;79.05;97100.59;5004908;28;20136;-63
2021/04/01 02:11:09;;;;;;;16.98;7.88;;;;;;;6.37;80.22;97103.75;4998057;28;20116;-62
2021/04/01 02:13:35;;;;;;;19.83;8.35;;;;;;;6.13;80.97;97095.06;5005035;28;20042;-63
2021/04/01 02:16:00;;;;;;;17.33;7.82;;;;;;;6.00;82.82;97096.09;5005121;28;20107;-63
2021/04/01 02:18:29;;;;;;;15.80;7.97;;;;;;;5.83;83.09;97096.13;4999956;28;20520;-63
2021/04/01 02:20:57;;;;;;;18.48;8.02;;;;;;;5.83;83.18;97104.28;5014198;28;20393;-63
2021/04/01 02:23:30;;;;;;;18.33;7.57;;;;;;;5.94;82.99;97103.63;5039123;28;20473;-62
2021/04/01 02:25:57;;;;;;;18.45;7.22;;;;;;;6.11;82.10;97094.59;5044399;28;20085;-63
2021/04/01 02:28:25;;;;;;;15.80;7.38;;;;;;;6.19;81.72;97092.94;5040068;28;20273;-64
2021/04/01 02:30:56;;;;;;;15.68;7.65;;;;;;;6.11;80.77;97082.94;5044761;28;20508;-63
2021/04/01 02:33:28;;;;;;;15.07;7.00;;;;;;;5.92;81.30;97094.19;5039106;28;20060;-63
2021/04/01 02:35:55;;;;;;;15.52;6.47;;;;;;;6.00;82.11;97095.31;5048626;28;20044;-60
2021/04/01 02:38:22;;;;;;;20.58;7.88;;;;;;;6.27;81.48;97097.56;5043239;28;20141;-64
2021/04/01 02:40:49;;;;;;;19.55;6.75;;;;;;;6.41;80.95;97091.06;5044505;28;20041;-64
2021/04/01 02:43:27;;;;;;;19.88;7.15;;;;;;;6.39;80.76;97094.16;5038847;28;20037;-62
2021/04/01 02:45:52;;;;;;;18.10;7.72;;;;;;;6.41;80.71;97091.06;5044352;28;20498;-61
2021/04/01 02:48:18;;;;;;;15.75;7.65;;;;;;;6.40;80.62;97090.28;5038270;28;20120;-64
2021/04/01 02:50:43;;;;;;;17.30;7.13;;;;;;;6.39;80.48;97094.16;5043508;28;20045;-63
2021/04/01 02:53:10;;;;;;;21.23;8.57;;;;;;;6.34;80.26;97094.34;5039844;28;20041;-63
2021/04/01 02:55:36;;;;;;;16.92;7.57;;;;;;;6.18;80.18;97099.53;5055916;28;20041;-64
2021/04/01 02:58:01;;;;;;;14.13;7.20;;;;;;;6.14;80.68;97095.88;5055810;28;20037;-63
2021/04/01 03:00:31;;;;;;;16.30;7.57;;;;;;;6.08;81.04;97089.03;5048815;28;20041;-61
2021/04/01 03:05:34;;;;;;;16.77;7.75;;;;;;;6.01;82.19;97083.28;5025351;28;20299;-63
2021/04/01 03:07:59;;;;;;;20.95;7.57;;;;;;;6.07;81.38;97084.72;5041010;28;20120;-63
2021/04/01 03:10:25;;;;;;;17.90;7.18;;;;;;;6.15;81.70;97086.59;5028154;28;20041;-62
2021/04/01 03:12:51;;;;;;;15.98;7.47;;;;;;;6.08;81.26;97089.81;5024506;28;20041;-61
2021/04/01 03:15:17;;;;;;;20.20;6.82;;;;;;;5.96;80.13;97081.56;5019281;28;20049;-61
2021/04/01 03:17:43;;;;;;;16.15;7.53;;;;;;;5.83;80.20;97082.53;5023762;28;20044;-62
2021/04/01 03:20:10;;;;;;;20.88;8.05;;;;;;;5.97;81.36;97088.59;5016709;28;20033;-62
2021/04/01 03:22:38;;;;;;;17.58;7.30;;;;;;;6.05;81.11;97082.31;5024800;28;20114;-62
2021/04/01 03:25:06;;;;;;;12.95;7.10;;;;;;;6.03;81.24;97090.03;5025713;28;20072;-62
2021/04/01 03:27:32;;;;;;;13.38;7.22;;;;;;;6.06;80.69;97080.41;5036779;28;20045;-62
2021/04/01 03:30:05;;;;;;;14.25;7.25;;;;;;;5.83;81.07;97080.63;5034345;28;20064;-62
2021/04/01 03:32:32;;;;;;;17.98;7.53;;;;;;;5.76;82.14;97083.03;5008031;28;20046;-63
2021/04/01 03:34:58;;;;;;;24.45;8.93;;;;;;;5.73;82.07;97083.72;5004347;28;20488;-62
2021/04/01 03:37:23;;;;;;;13.45;7.38;;;;;;;5.61;81.26;97080.88;5000055;28;20041;-62
2021/04/01 03:39:49;;;;;;;14.77;7.60;;;;;;;5.39;82.72;97084.63;5005061;28;20041;-62
2021/04/01 03:42:14;;;;;;;18.67;8.10;;;;;;;5.48;83.03;97086.19;5008048;28;20102;-62
2021/04/01 03:44:40;;;;;;;22.23;7.73;;;;;;;5.54;82.77;97093.03;5018347;28;20072;-65
2021/04/01 03:47:06;;;;;;;19.13;8.27;;;;;;;5.41;82.96;97088.59;5018373;28;20045;-62
2021/04/01 03:49:31;;;;;;;15.02;8.88;;;;;;;5.47;83.47;97091.94;5020195;28;20104;-64
2021/04/01 03:51:56;;;;;;;18.55;8.60;;;;;;;5.44;83.39;97093.38;5014643;28;20038;-63
2021/04/01 03:54:22;;;;;;;18.23;8.10;;;;;;;5.53;83.39;97090.66;5015359;28;20302;-64
2021/04/01 03:56:48;;;;;;;15.77;7.75;;;;;;;5.62;82.94;97088.69;5020471;28;20038;-62
2021/04/01 03:59:16;;;;;;;15.75;8.13;;;;;;;5.73;82.14;97098.09;5014608;28;20033;-62
2021/04/01 04:04:36;;;;;;;15.55;8.20;;;;;;;5.75;81.23;97095.06;5019328;28;20073;-64
2021/04/01 04:15:12;;;;;;;15.52;7.55;;;;;;;5.61;82.24;97087.09;5020723;28;20041;-64
2021/04/01 04:17:37;;;;;;;17.42;7.97;;;;;;;5.34;82.24;97085.56;5022985;28;20094;-62
2021/04/01 04:20:05;;;;;;;20.17;8.77;;;;;;;5.08;83.04;97082.91;5020825;28;20037;-63
2021/04/01 04:22:31;;;;;;;19.77;8.90;;;;;;;4.90;84.41;97084.84;5023216;28;20049;-65
2021/04/01 04:24:56;;;;;;;15.15;7.95;;;;;;;4.77;84.46;97090.09;5023348;28;20421;-65
2021/04/01 04:29:59;;;;;;;21.65;9.02;;;;;;;4.64;85.65;97093.75;5007436;28;20044;-63
2021/04/01 04:32:26;;;;;;;19.95;8.32;;;;;;;4.69;84.79;97092.81;5007172;28;20053;-63
2021/04/01 04:34:52;;;;;;;17.23;9.00;;;;;;;4.78;85.06;97086.25;5019848;28;20042;-63
2021/04/01 04:37:17;;;;;;;19.10;8.13;;;;;;;4.92;84.93;97094.25;5005821;28;20052;-63
2021/04/01 04:39:42;;;;;;;17.42;8.15;;;;;;;4.94;84.36;97089.28;5010982;28;20491;-64
2021/04/01 04:42:08;;;;;;;15.82;8.05;;;;;;;5.07;84.44;97097.59;5009514;28;20128;-63
2021/04/01 04:44:34;;;;;;;21.10;8.23;;;;;;;5.11;84.38;97095.81;5012435;28;20057;-64
2021/04/01 04:46:59;;;;;;;17.75;7.72;;;;;;;5.08;83.86;97099.19;5006789;28;20057;-65
2021/04/01 04:49:25;;;;;;;15.23;7.93;;;;;;;4.95;83.56;97099.03;5013187;28;20368;-64
2021/04/01 04:51:50;;;;;;;17.27;8.13;;;;;;;5.03;84.57;97102.06;5007987;28;20131;-63
2021/04/01 04:54:15;;;;;;;18.55;8.25;;;;;;;5.11;84.34;97102.06;5003492;28;20175;-63
2021/04/01 04:56:41;;;;;;;15.45;7.28;;;;;;;5.23;83.14;97106.84;5007172;28;20498;-63
2021/04/01 04:59:12;;;;;;;18.65;8.55;;;;;;;5.04;82.72;97111.81;5009527;28;20044;-63
2021/04/01 05:07:05;;;;;;;21.63;8.27;;;;;;;5.09;85.21;97111.66;4999056;28;20041;-64
2021/04/01 05:09:31;;;;;;;24.50;7.95;;;;;;;5.43;84.75;97108.06;5011222;28;20049;-65
2021/04/01 05:11:56;;;;;;;20.02;8.43;;;;;;;5.56;83.70;97106.28;5011266;28;20047;-63
2021/04/01 05:14:21;;;;;;;18.73;7.95;;;;;;;5.61;84.15;97108.03;5012400;28;20506;-66
2021/04/01 05:16:47;;;;;;;15.88;7.32;;;;;;;5.65;82.59;97112.50;5007062;28;20049;-64
2021/04/01 05:19:14;;;;;;;19.17;8.13;;;;;;;5.57;82.13;97121.47;5010888;28;20113;-66
2021/04/01 05:24:09;;;;;;;15.48;7.90;;;;;;;5.67;81.69;97113.00;5003477;28;20395;-64
2021/04/01 05:29:12;;;;;;;20.10;7.13;;;;;;;5.97;80.10;97115.00;5018525;28;20040;-64
2021/04/01 05:31:39;;;;;;;16.42;7.30;;;;;;;6.19;78.68;97120.16;5026531;28;20837;-64
2021/04/01 05:34:05;;;;;;;17.98;7.22;;;;;;;6.42;78.27;97117.16;5014384;28;20405;-65
2021/04/01 05:36:35;;;;;;;18.00;7.20;;;;;;;6.58;77.86;97128.28;5030064;28;20065;-64
2021/04/01 05:39:02;;;;;;;26.58;7.65;;;;;;;6.89;76.36;97125.97;5032130;28;20038;-63
2021/04/01 05:41:30;;;;;;;17.42;6.03;;;;;;;7.14;74.51;97130.75;5028304;28;20033;-63
2021/04/01 05:45:04;;;;;;;18.67;6.03;;;;;;;7.41;73.87;97132.13;5027047;28;20045;-64
2021/04/01 06:02:44;;;;;;;19.27;6.90;;;;;;;13.11;51.79;97132.75;5006901;28;20457;-63
2021/04/01 06:05:19;;;;;;;14.02;6.78;;;;;;;12.52;54.27;97138.56;5002155;28;20498;-64
2021/04/01 06:07:46;;;;;;;23.00;7.68;;;;;;;13.54;51.48;97136.84;5019438;28;20049;-63
2021/04/01 06:10:17;;;;;;;17.27;7.82;;;;;;;13.37;52.86;97142.91;5013602;28;20394;-62
2021/04/01 06:12:43;;;;;;;14.45;6.57;;;;;;;14.43;50.36;97141.66;5014082;28;20154;-64
2021/04/01 06:15:11;;;;;;;13.60;7.00;;;;;;;15.29;46.92;97142.25;5033789;28;20108;-62
2021/04/01 06:17:45;;;;;;;12.38;6.60;;;;;;;16.13;45.36;97135.03;5037811;28;20029;-60
2021/04/01 06:20:11;;;;;;;19.83;5.93;;;;;;;15.17;47.51;97137.06;5016691;28;20091;-62
2021/04/01 06:22:39;;;;;;;16.42;5.82;;;;;;;15.19;48.09;97148.50;5024492;28;20045;-63
2021/04/01 06:25:10;;;;;;;17.48;6.10;;;;;;;16.07;45.96;97139.38;5010420;28;20044;-62
2021/04/01 06:27:41;;;;;;;13.63;7.13;;;;;;;17.06;43.38;97146.09;5015425;28;20046;-62
2021/04/01 06:30:24;;;;;;;12.55;5.18;;;;;;;17.92;41.31;97145.00;5011173;28;20467;-61
2021/04/01 06:33:06;;;;;;;16.92;5.82;;;;;;;18.35;39.37;97150.28;5015918;28;20048;-63
2021/04/01 06:35:33;;;;;;;15.10;5.88;;;;;;;17.00;42.73;97142.94;5023257;28;20045;-63
2021/04/01 06:40:52;;;;;;;16.77;6.65;;;;;;;17.83;40.56;97150.97;5021200;28;20049;-61
2021/04/01 06:43:17;;;;;;;14.82;6.22;;;;;;;17.88;40.62;97141.44;5013730;28;20042;-61
2021/04/01 06:45:52;;;;;;;14.85;5.38;;;;;;;18.34;40.27;97143.16;5019864;28;20053;-65
2021/04/01 06:48:19;;;;;;;13.82;5.93;;;;;;;19.21;38.17;97130.09;5010837;28;20478;-63
2021/04/01 06:50:48;;;;;;;12.32;5.97;;;;;;;19.32;37.52;97137.50;5012488;28;20042;-63
2021/04/01 06:53:29;;;;;;;14.27;7.43;;;;;;;18.97;38.44;97133.94;5009269;28;20038;-66
2021/04/01 06:56:22;;;;;;;17.25;5.80;;;;;;;17.95;41.32;97142.22;5018483;28;20131;-64
2021/04/01 07:00:12;;;;;;;14.23;5.88;;;;;;;19.59;37.48;97138.41;5015981;28;20419;-63
2021/04/01 07:04:51;;;;;;;14.90;6.57;;;;;;;19.91;36.23;97131.63;5022197;28;20041;-66
2021/04/01 07:07:19;;;;;;;13.40;6.20;;;;;;;19.10;38.40;97141.31;5017422;28;20052;-65
2021/04/01 07:10:33;;;;;;;14.07;6.60;;;;;;;20.55;35.46;97131.91;5024545;28;20577;-65
2021/04/01 07:13:01;;;;;;;14.00;5.47;;;;;;;21.84;32.95;97131.50;5022446;28;20699;-65
2021/04/01 07:15:28;;;;;;;12.38;4.97;;;;;;;18.24;38.73;97132.91;5014962;28;20042;-63
2021/04/01 07:18:22;;;;;;;16.90;5.93;;;;;;;18.69;38.30;97130.97;5024120;28;20051;-64
2021/04/01 07:34:42;;;;;;;10.85;5.70;;;;;;;20.90;35.36;97122.16;5017796;28;21197;-64
2021/04/01 07:46:19;;;;;;;17.17;5.45;;;;;;;23.68;30.49;97122.97;5021855;28;20130;-66
2021/04/01 07:48:45;;;;;;;10.02;5.50;;;;;;;22.24;32.18;97125.84;5022594;28;20056;-63
2021/04/01 07:51:28;;;;;;;8.98;5.25;;;;;;;22.50;32.20;97124.06;5018946;28;20115;-66
2021/04/01 07:53:54;;;;;;;13.60;6.30;;;;;;;24.11;29.50;97130.09;5024743;28;20088;-66
2021/04/01 07:56:27;;;;;;;11.57;5.22;;;;;;;24.16;29.10;97125.94;5025757;28;20046;-62
2021/04/01 08:04:17;;;;;;;17.58;5.70;;;;;;;22.71;31.53;97119.97;5018553;28;20045;-64
2021/04/01 08:06:43;;;;;;;10.20;5.82;;;;;;;24.20;29.56;97127.41;5030292;28;20049;-64
2021/04/01 08:09:13;;;;;;;16.88;5.65;;;;;;;24.53;28.94;97130.00;5024490;28;20044;-64
2021/04/01 08:11:45;;;;;;;13.13;5.30;;;;;;;25.19;27.81;97132.19;5023440;28;20045;-65
2021/04/01 08:14:19;;;;;;;11.77;6.07;;;;;;;24.67;28.37;97128.75;5011852;28;20125;-62
2021/04/01 08:17:10;;;;;;;11.75;5.80;;;;;;;24.49;28.62;97126.50;5017345;28;20486;-64
2021/04/01 08:19:38;;;;;;;14.77;6.43;;;;;;;23.88;30.27;97119.19;5021359;28;20037;-63
2021/04/01 08:22:22;;;;;;;14.32;6.43;;;;;;;23.79;31.10;97117.06;5019870;28;20069;-63
2021/04/01 08:24:58;;;;;;;18.20;6.53;;;;;;;25.16;28.88;97121.91;5021183;28;20118;-64
2021/04/01 08:27:35;;;;;;;14.35;6.40;;;;;;;24.58;30.55;97115.44;5012030;28;20053;-64
2021/04/01 08:31:05;;;;;;;16.13;6.90;;;;;;;23.99;31.75;97120.47;5025421;28;20061;-63
2021/04/01 08:33:14;;;;;;;14.00;6.88;;;;;;;23.90;32.44;97116.75;5012548;28;20048;-64
2021/04/01 08:35:41;;;;;;;17.75;7.47;;;;;;;23.67;33.56;97119.38;5027878;28;20068;-62
2021/04/01 08:38:12;;;;;;;16.85;7.35;;;;;;;23.58;32.89;97113.63;4998646;28;20042;-62
2021/04/01 08:40:41;;;;;;;14.43;7.47;;;;;;;22.15;34.93;97121.66;5024280;28;20037;-61
2021/04/01 08:43:20;;;;;;;15.15;6.50;;;;;;;23.05;34.14;97113.13;5018081;28;20099;-61
2021/04/01 08:46:20;;;;;;;13.63;6.88;;;;;;;23.71;32.84;97112.88;5019949;28;20045;-63
2021/04/01 08:49:02;;;;;;;16.08;7.50;;;;;;;23.45;33.50;97112.84;5019625;28;20579;-64
2021/04/01 08:51:53;;;;;;;16.77;6.95;;;;;;;23.75;32.44;97107.97;5013447;28;20049;-63
2021/04/01 08:54:29;;;;;;;14.88;6.78;;;;;;;23.84;33.11;97103.34;5005563;28;20041;-63
2021/04/01 08:57:23;;;;;;;15.30;6.95;;;;;;;22.80;33.60;97119.34;5019340;28;20034;-64
2021/04/01 09:00:03;;;;;;;13.27;6.75;;;;;;;24.02;32.88;97102.78;5021145;28;20517;-64
2021/04/01 09:02:32;;;;;;;14.90;8.32;;;;;;;24.28;32.15;97111.19;5022371;28;20045;-64
2021/04/01 09:05:00;;;;;;;15.00;6.88;;;;;;;24.20;32.13;97098.63;5031356;28;20049;-64
2021/04/01 09:07:43;;;;;;;13.40;7.32;;;;;;;23.97;32.84;97103.34;5025445;28;20124;-64
2021/04/01 09:10:24;;;;;;;19.67;8.48;;;;;;;23.35;34.49;97106.31;5018675;28;20045;-63
2021/04/01 09:12:54;;;;;;;17.20;7.20;;;;;;;23.59;33.61;97097.66;5016492;28;20049;-64
2021/04/01 09:15:37;;;;;;;20.88;7.10;;;;;;;23.66;33.60;97100.25;5015221;28;20045;-63
2021/04/01 09:18:04;;;;;;;16.77;7.22;;;;;;;23.57;34.29;97100.09;5016489;28;20061;-63
2021/04/01 09:20:30;;;;;;;12.73;6.80;;;;;;;23.32;34.68;97081.25;5019124;28;20728;-64
2021/04/01 09:23:04;;;;;;;19.52;6.93;;;;;;;23.98;33.08;97085.31;5021003;28;20037;-65
2021/04/01 09:25:45;;;;;;;13.93;6.75;;;;;;;24.09;32.74;97084.97;5021886;28;20065;-64
2021/04/01 09:28:13;;;;;;;15.13;7.55;;;;;;;23.25;33.84;97082.25;5016569;28;20148;-66
2021/04/01 09:30:40;;;;;;;15.00;7.68;;;;;;;23.68;33.66;97072.63;5012691;28;20380;-64
2021/04/01 09:33:21;;;;;;;16.23;8.63;;;;;;;22.53;35.05;97079.31;5017313;28;20100;-65
2021/04/01 09:35:47;;;;;;;14.30;8.77;;;;;;;22.82;35.00;97075.00;5019653;28;20057;-64
2021/04/01 09:38:12;;;;;;;18.70;8.15;;;;;;;22.20;35.39;97084.09;5018827;28;20048;-64
2021/04/01 09:40:43;;;;;;;15.45;8.23;;;;;;;22.53;35.39;97079.31;5022282;28;20048;-64
2021/04/01 09:43:10;;;;;;;23.63;9.23;;;;;;;21.66;36.53;97082.53;5016722;28;20134;-65
2021/04/01 09:45:36;;;;;;;18.38;8.95;;;;;;;20.57;37.99;97077.38;5021893;28;20052;-64
2021/04/01 09:48:03;;;;;;;19.92;8.80;;;;;;;22.50;35.38;97071.03;5022363;28;20041;-63
2021/04/01 09:50:43;;;;;;;16.38;8.63;;;;;;;23.02;34.41;97069.28;5016980;28;20057;-64
2021/04/01 09:53:18;;;;;;;17.30;9.10;;;;;;;22.58;35.26;97071.63;5004865;28;20127;-64
2021/04/01 09:55:54;;;;;;;21.15;10.43;;;;;;;22.47;35.23;97063.53;5021066;28;20046;-64
2021/04/01 09:58:22;;;;;;;20.55;9.65;;;;;;;22.58;35.11;97063.25;5016829;28;20041;-63
2021/04/01 10:03:27;;;;;;;17.95;10.60;;;;;;;22.43;35.74;97057.25;5023886;28;20041;-63
2021/04/01 10:05:53;;;;;;;16.27;9.52;;;;;;;22.43;35.69;97057.25;5043285;28;20049;-66
2021/04/01 10:08:24;;;;;;;18.63;9.63;;;;;;;22.41;35.61;97052.09;5020451;28;20045;-65
2021/04/01 10:10:51;;;;;;;15.50;9.50;;;;;;;22.50;35.44;97038.31;5026065;28;20136;-65
2021/04/01 10:13:25;;;;;;;21.75;10.85;;;;;;;22.83;34.37;97045.84;5018668;28;20041;-63
2021/04/01 10:15:52;;;;;;;22.95;10.85;;;;;;;23.33;33.34;97036.09;5026468;28;20127;-64
2021/04/01 10:18:28;;;;;;;17.65;10.00;;;;;;;23.35;33.86;97036.44;5022621;28;20045;-65
2021/04/01 10:21:01;;;;;;;21.23;9.93;;;;;;;23.48;32.78;97033.69;5025062;28;20045;-65
2021/04/01 10:23:27;;;;;;;19.08;9.68;;;;;;;23.46;34.08;97031.34;5012781;28;20049;-63
2021/04/01 10:26:06;;;;;;;26.75;11.75;;;;;;;23.90;33.44;97030.06;5026953;28;20394;-64
2021/04/01 10:28:45;;;;;;;21.10;11.77;;;;;;;22.13;36.66;97025.69;5017854;28;20403;-64
2021/04/01 10:31:18;;;;;;;18.95;10.63;;;;;;;21.17;38.12;97021.78;4995435;28;20180;-64
2021/04/01 10:34:13;;;;;;;18.33;11.20;;;;;;;21.23;37.27;97027.66;5019000;28;20045;-64
2021/04/01 10:36:41;;;;;;;18.85;11.13;;;;;;;21.90;37.07;97018.25;5024679;28;20494;-64
2021/04/01 10:39:09;;;;;;;21.88;11.35;;;;;;;22.40;35.99;97016.25;5019511;28;20045;-64
2021/04/01 10:41:44;;;;;;;20.30;10.70;;;;;;;22.73;35.49;97007.84;5024914;28;20038;-63
2021/04/01 10:44:10;;;;;;;17.40;10.43;;;;;;;23.22;34.26;97000.09;5017921;28;20402;-63
2021/04/01 10:46:36;;;;;;;18.83;9.93;;;;;;;22.43;34.98;96996.63;5023820;28;20044;-63
2021/04/01 10:49:02;;;;;;;23.83;10.45;;;;;;;22.52;34.83;96996.78;5014365;28;20046;-63
2021/04/01 10:51:28;;;;;;;13.90;8.20;;;;;;;22.59;34.38;96992.25;5022092;28;20410;-63
2021/04/01 10:53:54;;;;;;;17.05;7.88;;;;;;;22.55;34.41;96983.19;5019560;28;20045;-64
2021/04/01 10:56:20;;;;;;;13.85;6.65;;;;;;;22.95;33.27;96980.88;5016226;28;20072;-64
2021/04/01 10:58:54;;;;;;;14.68;8.55;;;;;;;23.01;32.77;96970.75;5018757;28;20041;-64
2021/04/01 11:01:35;;;;;;;22.67;9.93;;;;;;;21.48;32.91;96984.56;5017961;28;20631;-64
2021/04/01 11:04:03;;;;;;;12.40;6.95;;;;;;;21.17;34.90;96980.00;5023047;28;20037;-64
2021/04/01 11:06:29;;;;;;;14.90;7.32;;;;;;;21.28;35.25;96974.22;5022040;28;20084;-64
2021/04/01 11:08:58;;;;;;;13.90;7.53;;;;;;;21.11;34.69;96978.97;5013672;28;20037;-63
2021/04/01 11:11:36;;;;;;;12.85;6.47;;;;;;;20.42;35.77;96975.91;5019720;28;20803;-63
2021/04/01 11:14:02;;;;;;;31.80;8.88;;;;;;;19.95;37.45;96965.59;5023425;28;20545;-64
2021/04/01 11:16:30;;;;;;;11.15;5.47;;;;;;;20.25;36.13;96969.44;5017434;28;20083;-63
2021/04/01 11:18:59;;;;;;;13.90;5.53;;;;;;;20.89;33.52;96961.91;5016537;28;20056;-63
2021/04/01 11:21:25;;;;;;;16.75;6.10;;;;;;;21.38;33.95;96959.28;5028962;28;20046;-64
2021/04/01 11:23:50;;;;;;;26.05;7.20;;;;;;;21.49;33.31;96950.69;5044198;28;20041;-64
2021/04/01 11:26:24;;;;;;;13.15;6.00;;;;;;;22.01;31.50;96949.06;5036023;28;20126;-65
2021/04/01 11:28:51;;;;;;;16.48;5.85;;;;;;;22.11;31.45;96938.84;5044239;28;20118;-64
2021/04/01 11:31:29;;;;;;;19.65;6.30;;;;;;;22.14;32.03;96940.78;5026356;28;20135;-64
2021/04/01 11:34:00;;;;;;;15.50;7.50;;;;;;;21.69;33.10;96936.69;5022824;28;20124;-64
2021/04/01 11:36:29;;;;;;;15.55;6.43;;;;;;;22.03;33.27;96931.91;5018807;28;20094;-64
2021/04/01 11:38:57;;;;;;;13.25;5.82;;;;;;;22.54;32.92;96929.38;5023728;28;20041;-63
2021/04/01 11:41:25;;;;;;;22.00;6.13;;;;;;;22.98;32.00;96926.16;5015969;28;20524;-63
2021/04/01 11:43:52;;;;;;;13.20;6.30;;;;;;;22.69;32.39;96918.59;5025322;28;20135;-64
2021/04/01 11:46:21;;;;;;;15.00;6.03;;;;;;;21.85;33.18;96921.97;5020095;28;20045;-64
2021/04/01 11:48:49;;;;;;;17.10;6.53;;;;;;;22.84;32.02;96916.97;5021687;28;20056;-64
2021/04/01 11:51:20;;;;;;;14.95;6.22;;;;;;;23.19;30.91;96914.38;5019366;28;20041;-64
2021/04/01 11:53:46;;;;;;;13.73;5.57;;;;;;;23.40;30.73;96910.13;5024038;28;20037;-63
2021/04/01 11:56:11;;;;;;;16.65;6.28;;;;;;;23.42;30.73;96904.88;5018239;28;20498;-63
2021/04/01 11:58:37;;;;;;;14.93;5.85;;;;;;;23.47;30.65;96907.09;5023283;28;20050;-62
2021/04/01 12:01:05;;;;;;;12.43;5.32;;;;;;;23.40;30.79;96910.13;5015230;28;20041;-62
2021/04/01 12:03:40;;;;;;;16.33;6.28;;;;;;;22.76;30.88;96904.44;5021241;28;20045;-63
2021/04/01 12:06:06;;;;;;;13.57;6.13;;;;;;;22.84;31.21;96900.22;5009780;28;20091;-64
2021/04/01 12:08:32;;;;;;;16.50;6.45;;;;;;;22.00;32.79;96886.13;5020377;28;20068;-64
2021/04/01 12:10:58;;;;;;;15.88;6.80;;;;;;;22.25;32.64;96887.47;5022317;28;20045;-63
2021/04/01 12:13:25;;;;;;;18.52;8.70;;;;;;;20.93;34.53;96895.81;5017429;28;20057;-63
2021/04/01 12:15:51;;;;;;;21.95;8.55;;;;;;;21.33;34.48;96887.34;5007116;28;20549;-63
2021/04/01 12:18:17;;;;;;;20.40;7.20;;;;;;;21.21;33.93;96885.25;5002253;28;20042;-62
2021/04/01 12:20:43;;;;;;;21.35;7.78;;;;;;;21.19;34.36;96880.13;5021240;28;20044;-63
2021/04/01 12:23:16;;;;;;;18.67;7.78;;;;;;;20.87;34.17;96877.25;5037592;28;20064;-63
2021/04/01 12:25:43;;;;;;;21.55;9.07;;;;;;;20.85;34.43;96874.91;5040445;28;20433;-63
2021/04/01 12:28:18;;;;;;;24.15;8.25;;;;;;;19.46;36.94;96882.59;5036368;28;20037;-62
2021/04/01 12:30:46;;;;;;;22.42;8.85;;;;;;;19.64;36.96;96868.44;5042634;28;20405;-64
2021/04/01 12:33:16;;;;;;;18.50;6.95;;;;;;;20.33;36.46;96869.97;5037675;28;20036;-63
2021/04/01 12:36:01;;;;;;;17.92;5.95;;;;;;;20.69;35.72;96864.53;5042575;28;20133;-63
2021/04/01 12:38:30;;;;;;;15.63;7.25;;;;;;;20.36;36.02;96852.44;5038725;28;20041;-63
2021/04/01 12:41:02;;;;;;;13.63;6.22;;;;;;;20.46;36.21;96851.44;5042713;28;20044;-63
2021/04/01 12:43:30;;;;;;;18.15;6.60;;;;;;;20.53;35.93;96851.31;5042017;28;20075;-64
2021/04/01 12:45:57;;;;;;;25.85;7.85;;;;;;;19.98;37.30;96848.00;5047103;28;20045;-62
2021/04/01 12:48:22;;;;;;;19.33;6.68;;;;;;;20.53;36.09;96844.97;5037673;28;20041;-63
2021/04/01 12:50:50;;;;;;;16.92;6.57;;;;;;;20.62;35.71;96842.41;5039822;28;20051;-63
2021/04/01 12:53:21;;;;;;;15.68;6.85;;;;;;;20.70;35.17;96840.25;5036681;28;20102;-63
2021/04/01 12:55:56;;;;;;;16.55;6.28;;;;;;;20.59;35.95;96830.09;5042524;28;20076;-63
2021/04/01 12:58:35;;;;;;;16.65;6.97;;;;;;;20.83;35.26;96838.34;5037029;28;20090;-63
2021/04/01 13:01:12;;;;;;;20.15;6.38;;;;;;;21.09;34.87;96836.59;5043454;28;20122;-64